Terminal Aerodrome Forecast
Issued by NWS Wilmington, OH

Current Version | Previous Version | Graphics & Text | Print | Product List | Glossary On
Versions: 1 2 3 4 5 6 7 8 9 10 11 12 13 14 15 16 17 18 19 20 21 22 23 24 25
621
FTUS41 KILN 162201 AAA
TAFDAY
TAF AMD
KDAY 162201Z 1622/1718 35014KT P6SM SCT025 BKN035
     FM170300 04003KT P6SM BKN035
     FM171500 17008KT P6SM VCSH SCT050 OVC090=

USA.gov is the U.S. government's official web portal to all federal, state and local government web resources and services.